createdAt,value
2023-01-13T01:16:49.617Z,0.00
2023-01-13T01:17:49.543Z,0.00
2023-01-13T01:19:53.893Z,0.00
2023-01-13T01:20:53.788Z,0.00
2023-01-13T01:22:58.118Z,0.00
2023-01-13T01:23:58.056Z,0.00
2023-01-13T01:28:54.792Z,0.00
2023-01-13T01:29:54.691Z,0.00
2023-01-13T05:49:54.050Z,8.00
2023-01-13T05:50:53.636Z,8.00
2023-01-13T05:52:59.677Z,8.00
2023-01-13T05:53:58.969Z,8.00
2023-01-13T05:56:03.424Z,8.00
2023-01-13T05:57:03.190Z,8.00
2023-01-13T05:58:03.110Z,8.00
2023-01-13T05:59:03.352Z,8.00
2023-01-13T06:00:02.956Z,8.00
2023-01-13T06:01:02.920Z,8.00
2023-01-13T06:02:02.778Z,8.00
2023-01-13T06:03:02.726Z,8.00
2023-01-13T06:04:02.659Z,8.00
2023-01-13T06:05:02.575Z,8.00
2023-01-13T06:06:02.512Z,8.00
2023-01-13T06:07:02.442Z,8.00
2023-01-13T06:08:02.377Z,8.00
2023-01-13T06:09:02.326Z,8.00
2023-01-13T06:10:02.251Z,8.00
2023-01-13T06:11:02.178Z,8.00
2023-01-13T06:12:02.120Z,8.00
2023-01-13T06:13:02.043Z,8.00
2023-01-13T06:14:01.976Z,8.00
2023-01-13T06:15:01.908Z,8.00
2023-01-13T06:16:01.868Z,8.00
2023-01-13T06:17:01.786Z,8.00
2023-01-13T06:18:01.714Z,8.00
2023-01-13T06:19:01.652Z,8.00
2023-01-13T06:20:01.586Z,8.00
2023-01-13T06:21:01.552Z,8.00
2023-01-13T06:22:01.473Z,8.00
2023-01-13T06:23:01.385Z,8.00
2023-01-13T06:24:01.333Z,8.00
2023-01-13T06:25:01.246Z,8.00
2023-01-13T06:26:01.199Z,8.00
2023-01-13T06:27:01.119Z,8.00
2023-01-13T06:28:01.047Z,8.00
2023-01-13T06:29:00.978Z,8.00
2023-01-13T06:30:00.916Z,8.00
2023-01-13T06:31:00.885Z,8.00
2023-01-13T06:32:00.781Z,8.00
2023-01-13T06:33:00.720Z,8.00
2023-01-13T06:34:00.661Z,8.00
2023-01-13T06:35:00.592Z,8.00
2023-01-13T06:36:00.529Z,8.00
2023-01-13T06:37:00.489Z,8.00
2023-01-13T06:38:00.405Z,8.00
2023-01-13T06:39:00.318Z,8.00
2023-01-13T06:40:00.249Z,12.00
2023-01-13T06:41:00.224Z,8.00
2023-01-13T06:42:00.119Z,8.00
2023-01-13T06:43:00.055Z,8.00
2023-01-13T06:43:59.981Z,8.00
2023-01-13T06:44:59.920Z,8.00
2023-01-13T06:45:59.853Z,12.00
2023-01-13T06:46:59.839Z,12.00
2023-01-13T06:47:59.728Z,12.00
2023-01-13T06:48:59.653Z,8.00
2023-01-13T06:49:59.586Z,8.00
2023-01-13T06:50:59.519Z,12.00
2023-01-13T06:51:59.456Z,12.00
2023-01-13T06:52:59.387Z,16.00
2023-01-13T06:53:59.341Z,12.00
2023-01-13T06:54:59.252Z,16.00
2023-01-13T06:55:59.189Z,16.00
2023-01-13T06:56:59.121Z,16.00
2023-01-13T06:57:59.091Z,16.00
2023-01-13T06:58:59.001Z,16.00
2023-01-13T06:59:58.921Z,20.00
2023-01-13T07:00:58.993Z,24.00
2023-01-13T07:01:58.839Z,28.00
2023-01-13T07:02:58.751Z,28.00
2023-01-13T07:03:58.658Z,28.00
2023-01-13T07:04:58.587Z,32.00
2023-01-13T07:05:58.528Z,32.00
2023-01-13T07:06:58.457Z,36.00
2023-01-13T07:07:58.388Z,36.00
2023-01-13T07:08:58.329Z,40.00
2023-01-13T07:09:58.260Z,48.00
2023-01-13T07:10:58.206Z,48.00
2023-01-13T07:11:58.132Z,52.00
2023-01-13T07:12:58.082Z,56.00
2023-01-13T07:13:57.995Z,56.00
2023-01-13T07:14:57.929Z,64.00
2023-01-13T07:15:57.894Z,68.00
2023-01-13T07:16:57.818Z,72.00
2023-01-13T07:17:57.734Z,76.00
2023-01-13T07:18:57.663Z,84.00
2023-01-13T07:19:57.593Z,92.00
2023-01-13T07:20:57.523Z,92.00
2023-01-13T07:21:57.484Z,100.00
2023-01-13T07:22:57.396Z,108.00
2023-01-13T07:23:57.324Z,112.00
2023-01-13T07:24:57.259Z,120.00
2023-01-13T07:25:57.213Z,124.00
2023-01-13T07:26:57.130Z,128.00
2023-01-13T07:27:57.059Z,140.00
2023-01-13T07:28:56.997Z,140.00
2023-01-13T07:29:56.944Z,144.00
2023-01-13T07:30:56.861Z,148.00
2023-01-13T07:31:56.817Z,148.00
2023-01-13T07:32:56.742Z,148.00
2023-01-13T07:33:56.671Z,152.00
2023-01-13T07:34:56.595Z,156.00
2023-01-13T07:35:56.559Z,164.00
2023-01-13T07:36:56.460Z,172.00
2023-01-13T07:37:56.408Z,188.00
2023-01-13T07:38:56.326Z,192.00
2023-01-13T07:39:56.262Z,200.00
2023-01-13T07:40:56.210Z,204.00
2023-01-13T07:41:56.136Z,212.00
2023-01-13T07:42:56.066Z,216.00
2023-01-13T07:43:56.065Z,220.00
2023-01-13T07:44:55.925Z,224.00
2023-01-13T07:45:55.867Z,228.00
2023-01-13T07:46:55.797Z,236.00
2023-01-13T07:47:55.741Z,248.00
2023-01-13T07:48:55.664Z,256.00
2023-01-13T07:49:55.598Z,268.00
2023-01-13T07:50:55.533Z,268.00
2023-01-13T07:51:55.465Z,276.00
2023-01-13T07:52:55.389Z,288.00
2023-01-13T07:53:55.335Z,296.00
2023-01-13T07:54:55.287Z,296.00
2023-01-13T07:55:55.207Z,300.00
2023-01-13T07:56:55.145Z,300.00
2023-01-13T07:57:55.080Z,304.00
2023-01-13T07:58:54.992Z,316.00
2023-01-13T07:59:54.930Z,324.00
2023-01-13T08:00:55.191Z,328.00
2023-01-13T08:01:55.022Z,320.00
2023-01-13T08:02:54.771Z,316.00
2023-01-13T08:03:54.668Z,328.00
2023-01-13T08:04:54.603Z,332.00
2023-01-13T08:05:54.533Z,320.00
2023-01-13T08:06:54.462Z,344.00
2023-01-13T08:07:54.417Z,360.00
2023-01-13T08:08:54.331Z,368.00
2023-01-13T08:09:54.274Z,372.00
2023-01-13T08:10:54.220Z,376.00
2023-01-13T08:11:54.131Z,404.00
2023-01-13T08:12:56.910Z,408.00
2023-01-13T08:13:54.000Z,428.00
2023-01-13T08:14:53.950Z,416.00
2023-01-13T08:15:53.875Z,432.00
2023-01-13T08:16:53.846Z,436.00
2023-01-13T08:17:53.748Z,444.00
2023-01-13T08:18:53.669Z,440.00
2023-01-13T08:19:53.613Z,428.00
2023-01-13T08:20:53.584Z,444.00
2023-01-13T08:21:53.471Z,448.00
2023-01-13T08:22:53.404Z,492.00
2023-01-13T08:23:53.345Z,512.00
2023-01-13T08:24:53.269Z,524.00
2023-01-13T08:25:53.213Z,560.00
2023-01-13T08:26:53.139Z,572.00
2023-01-13T08:27:53.493Z,568.00
2023-01-13T10:17:12.209Z,1252.00
2023-01-13T10:18:12.024Z,968.00
